Terminal Aerodrome Forecast
Issued by NWS

Home | Current Version | Previous Version | Text Only | Print | Product List | Glossary On
Versions: 1 2 3 4 5 6 7 8 9 10 11 12 13 14 15 16 17 18 19 20 21
000
FTUS42 TJSJ 181120
TAFIST
TAF
TIST 181120Z 1812/1912 08007KT P6SM SCT025 SCT035
     FM181300 08015G22KT P6SM FEW025 FEW035
     FM182300 08010KT P6SM FEW025=

USA.gov is the U.S. government's official web portal to all federal, state and local government web resources and services.